createdAt,value
2024-01-28T00:00:00.431Z,103457.63
2024-01-28T00:02:28.220Z,103452.66
2024-01-28T00:04:55.990Z,103452.72
2024-01-28T00:07:23.541Z,103445.28
2024-01-28T00:09:51.134Z,103448.53
2024-01-28T00:12:18.800Z,103440.31
2024-01-28T00:14:46.537Z,103448.50
2024-01-28T00:17:14.390Z,103440.25
2024-01-28T00:19:42.187Z,103446.97
2024-01-28T00:22:09.807Z,103441.59
2024-01-28T00:24:37.391Z,103438.38
2024-01-28T00:27:05.144Z,103437.53
2024-01-28T00:29:32.757Z,103433.00
2024-01-28T00:32:03.215Z,103438.25
2024-01-28T00:34:31.042Z,103443.91
2024-01-28T00:36:58.758Z,103442.75
2024-01-28T00:39:26.498Z,103446.28
2024-01-28T00:41:54.087Z,103438.81
2024-01-28T00:44:21.648Z,103435.84
2024-01-28T00:46:49.206Z,103432.88
2024-01-28T00:49:17.045Z,103438.81
2024-01-28T00:51:44.821Z,103436.44
2024-01-28T00:54:12.423Z,103446.28
2024-01-28T00:56:39.993Z,103441.97
2024-01-28T00:59:07.552Z,103439.72
2024-01-28T01:01:35.075Z,103440.59
2024-01-28T01:04:02.681Z,103449.81
2024-01-28T01:06:30.415Z,103446.72
2024-01-28T01:08:58.023Z,103448.69
2024-01-28T01:11:25.861Z,103452.44
2024-01-28T01:13:54.800Z,103434.25
2024-01-28T01:16:22.461Z,103426.50
2024-01-28T01:18:50.182Z,103429.03
2024-01-28T01:21:18.095Z,103412.06
2024-01-28T01:23:45.783Z,103412.22
2024-01-28T01:26:14.571Z,103422.31
2024-01-28T01:28:42.886Z,103423.81
2024-01-28T01:31:10.422Z,103422.59
2024-01-28T01:33:38.180Z,103424.56
2024-01-28T01:36:06.496Z,103422.50
2024-01-28T01:38:34.107Z,103421.88
2024-01-28T01:41:01.694Z,103414.53
2024-01-28T01:43:29.930Z,103408.28
2024-01-28T01:45:57.483Z,103393.66
2024-01-28T01:48:25.581Z,103396.63
2024-01-28T01:50:53.275Z,103390.06
2024-01-28T01:53:21.024Z,103386.00
2024-01-28T01:55:49.594Z,103377.53
2024-01-28T01:58:17.804Z,103382.00
2024-01-28T02:00:45.510Z,103392.63
2024-01-28T02:03:13.570Z,103389.03
2024-01-28T02:05:41.306Z,103383.47
2024-01-28T02:08:08.909Z,103381.59
2024-01-28T02:10:36.559Z,103371.66
2024-01-28T02:13:04.187Z,103374.00
2024-01-28T02:15:36.879Z,103369.75
2024-01-28T02:18:04.771Z,103375.25
2024-01-28T02:20:32.462Z,103381.03
2024-01-28T02:23:00.071Z,103376.19
2024-01-28T02:25:27.620Z,103380.03
2024-01-28T02:27:55.183Z,103379.16
2024-01-28T02:30:23.575Z,103379.63
2024-01-28T02:32:52.414Z,103374.00
2024-01-28T02:35:20.203Z,103381.16
2024-01-28T02:37:49.281Z,103381.16
2024-01-28T02:40:16.926Z,103372.25
2024-01-28T02:42:45.010Z,103375.09
2024-01-28T02:45:12.571Z,103378.88
2024-01-28T02:47:40.294Z,103372.66
2024-01-28T02:50:08.720Z,103375.78
2024-01-28T02:52:36.350Z,103367.13
2024-01-28T02:55:04.065Z,103365.06
2024-01-28T02:57:31.861Z,103357.16
2024-01-28T03:00:00.354Z,103351.59
2024-01-28T03:02:27.956Z,103350.00
2024-01-28T03:04:55.518Z,103347.63
2024-01-28T03:07:23.324Z,103334.94
2024-01-28T03:09:51.056Z,103338.81
2024-01-28T03:12:18.593Z,103329.41
2024-01-28T03:14:46.529Z,103328.53
2024-01-28T03:17:14.065Z,103322.16
2024-01-28T03:19:41.601Z,103331.84
2024-01-28T03:22:09.186Z,103320.09
2024-01-28T03:24:36.814Z,103316.06
2024-01-28T03:27:04.843Z,103314.56
2024-01-28T03:29:32.574Z,103314.25
2024-01-28T03:32:00.170Z,103314.69
2024-01-28T03:34:27.813Z,103321.38
2024-01-28T03:36:55.464Z,103320.31
2024-01-28T03:39:23.040Z,103313.91
2024-01-28T03:41:50.949Z,103309.06
2024-01-28T03:44:23.957Z,103311.28
2024-01-28T03:46:51.847Z,103311.59
2024-01-28T03:49:19.537Z,103315.34
2024-01-28T03:51:47.998Z,103309.97
2024-01-28T03:54:15.603Z,103310.44
2024-01-28T03:56:43.209Z,103304.91
2024-01-28T03:59:10.813Z,103301.91
2024-01-28T04:01:38.562Z,103292.56
2024-01-28T04:04:06.294Z,103300.00
2024-01-28T04:06:34.768Z,103292.88
2024-01-28T04:09:02.543Z,103284.88
2024-01-28T04:11:30.113Z,103280.56
2024-01-28T04:13:57.785Z,103279.03
2024-01-28T04:16:25.405Z,103284.56
2024-01-28T04:18:53.737Z,103277.69
2024-01-28T04:21:21.793Z,103280.75
2024-01-28T04:23:49.472Z,103274.69
2024-01-28T04:26:17.186Z,103267.34
2024-01-28T04:28:45.067Z,103266.84
2024-01-28T04:31:14.358Z,103270.84
2024-01-28T04:33:43.314Z,103260.50
2024-01-28T04:36:11.700Z,103259.41
2024-01-28T04:38:39.447Z,103264.50
2024-01-28T04:41:07.185Z,103255.72
2024-01-28T04:43:34.924Z,103253.06
2024-01-28T04:46:02.675Z,103254.50
2024-01-28T04:48:30.514Z,103248.41
2024-01-28T04:50:58.368Z,103255.50
2024-01-28T04:53:26.078Z,103252.06
2024-01-28T04:55:53.776Z,103250.34
2024-01-28T04:58:21.465Z,103249.91
2024-01-28T05:00:49.380Z,103244.84
2024-01-28T05:03:18.214Z,103237.13
2024-01-28T05:05:46.056Z,103241.28
2024-01-28T05:08:13.811Z,103240.88
2024-01-28T05:10:41.443Z,103229.94
2024-01-28T05:13:09.076Z,103229.84
2024-01-28T05:15:37.164Z,103229.69
2024-01-28T05:18:05.104Z,103230.59
2024-01-28T05:20:32.806Z,103236.13
2024-01-28T05:23:01.171Z,103226.53
2024-01-28T05:25:29.528Z,103216.06
2024-01-28T05:27:57.295Z,103206.03
2024-01-28T05:30:24.987Z,103210.53
2024-01-28T05:32:52.584Z,103195.75
2024-01-28T05:35:20.268Z,103187.72
2024-01-28T05:37:47.794Z,103193.53
2024-01-28T05:40:16.419Z,103184.72
2024-01-28T05:42:44.237Z,103183.66
2024-01-28T05:45:11.905Z,103185.78
2024-01-28T05:47:39.485Z,103173.69
2024-01-28T05:50:07.073Z,103178.88
2024-01-28T05:52:34.679Z,103171.56
2024-01-28T05:55:02.260Z,103167.69
2024-01-28T05:57:30.522Z,103175.44
2024-01-28T05:59:58.127Z,103173.84
2024-01-28T06:02:25.742Z,103182.47
2024-01-28T06:04:53.362Z,103181.41
2024-01-28T06:07:20.969Z,103176.88
2024-01-28T06:09:48.631Z,103171.22
2024-01-28T06:12:17.512Z,103173.16
2024-01-28T06:14:45.211Z,103174.41
2024-01-28T06:17:12.735Z,103171.31
2024-01-28T06:19:40.279Z,103165.91
2024-01-28T06:22:07.864Z,103165.06
2024-01-28T06:24:36.778Z,103166.38
2024-01-28T06:27:04.825Z,103158.50
2024-01-28T06:29:32.423Z,103154.72
2024-01-28T06:31:59.944Z,103158.22
2024-01-28T06:34:27.537Z,103158.44
2024-01-28T06:36:55.109Z,103158.78
2024-01-28T06:39:22.818Z,103155.88
2024-01-28T06:41:51.417Z,103150.19
2024-01-28T06:44:19.058Z,103162.28
2024-01-28T06:46:46.635Z,103162.13
2024-01-28T06:49:17.751Z,103164.28
2024-01-28T06:51:47.426Z,103168.91
2024-01-28T06:54:15.220Z,103169.78
2024-01-28T06:56:42.868Z,103169.06
2024-01-28T06:59:10.586Z,103158.78
2024-01-28T07:01:38.223Z,103156.13
2024-01-28T07:04:05.885Z,103158.22
2024-01-28T07:06:33.740Z,103156.03
2024-01-28T07:09:01.486Z,103167.09
2024-01-28T07:11:29.102Z,103170.66
2024-01-28T07:13:56.625Z,103175.56
2024-01-28T07:16:24.276Z,103165.31
2024-01-28T07:18:53.587Z,103170.22
2024-01-28T07:21:21.341Z,103170.38
2024-01-28T07:23:49.018Z,103170.66
2024-01-28T07:26:16.541Z,103168.72
2024-01-28T07:28:44.380Z,103164.94
2024-01-28T07:31:11.936Z,103173.13
2024-01-28T07:33:39.748Z,103173.28
2024-01-28T07:36:08.254Z,103174.94
2024-01-28T07:38:35.886Z,103172.06
2024-01-28T07:41:04.183Z,103172.00
2024-01-28T07:43:32.016Z,103167.28
2024-01-28T07:45:59.801Z,103172.63
2024-01-28T07:48:27.569Z,103175.00
2024-01-28T07:50:56.294Z,103173.06
2024-01-28T07:53:23.851Z,103168.16
2024-01-28T07:55:51.675Z,103167.28
2024-01-28T07:58:19.234Z,103157.47
2024-01-28T08:00:47.138Z,103139.97
2024-01-28T08:03:14.754Z,103146.06
2024-01-28T08:05:42.786Z,103145.50
2024-01-28T08:08:12.646Z,103141.59
2024-01-28T08:10:42.088Z,103148.91
2024-01-28T08:13:09.670Z,103136.25
2024-01-28T08:15:37.754Z,103144.75
2024-01-28T08:18:05.606Z,103145.09
2024-01-28T08:20:33.170Z,103139.28
2024-01-28T08:23:00.790Z,103133.81
2024-01-28T08:25:28.397Z,103135.13
2024-01-28T08:27:56.029Z,103139.97
2024-01-28T08:30:24.634Z,103136.16
2024-01-28T08:32:52.310Z,103129.78
2024-01-28T08:35:20.180Z,103126.13
2024-01-28T08:37:47.760Z,103132.38
2024-01-28T08:40:15.863Z,103130.41
2024-01-28T08:42:43.494Z,103130.69
2024-01-28T08:45:11.118Z,103121.84
2024-01-28T08:47:38.737Z,103121.78
2024-01-28T08:50:06.587Z,103121.34
2024-01-28T08:52:34.128Z,103127.50
2024-01-28T08:55:01.731Z,103112.69
2024-01-28T08:57:29.419Z,103109.75
2024-01-28T08:59:57.010Z,103111.28
2024-01-28T09:02:25.142Z,103107.75
2024-01-28T09:04:53.109Z,103108.38
2024-01-28T09:07:20.916Z,103103.41
2024-01-28T09:09:48.627Z,103109.97
2024-01-28T09:12:16.401Z,103100.53
2024-01-28T09:14:44.005Z,103094.28
2024-01-28T09:17:11.816Z,103099.22
2024-01-28T09:19:39.446Z,103098.69
2024-01-28T09:22:07.131Z,103087.28
2024-01-28T09:24:34.898Z,103080.97
2024-01-28T09:27:03.079Z,103081.16
2024-01-28T09:29:31.702Z,103081.06
2024-01-28T09:32:00.530Z,103078.03
2024-01-28T09:34:29.842Z,103087.03
2024-01-28T09:36:57.503Z,103084.84
2024-01-28T09:39:25.284Z,103088.44
2024-01-28T09:41:55.563Z,103073.28
2024-01-28T09:44:23.120Z,103076.22
2024-01-28T09:46:51.635Z,103073.03
2024-01-28T09:49:20.685Z,103069.81
2024-01-28T09:51:48.424Z,103059.06
2024-01-28T09:54:16.146Z,103066.69
2024-01-28T09:56:44.597Z,103065.75
2024-01-28T09:59:14.107Z,103053.25
2024-01-28T10:01:44.144Z,103066.16
2024-01-28T10:04:12.159Z,103053.59
2024-01-28T10:06:39.921Z,103055.38
2024-01-28T10:09:07.509Z,103045.03
2024-01-28T10:11:35.220Z,103051.28
2024-01-28T10:14:02.826Z,103046.56
2024-01-28T10:16:36.180Z,103048.50
2024-01-28T10:19:04.555Z,103040.53
2024-01-28T10:21:32.952Z,103051.69
2024-01-28T10:24:00.806Z,103041.06
2024-01-28T10:26:28.346Z,103039.22
2024-01-28T10:28:56.052Z,103034.78
2024-01-28T10:31:24.197Z,103030.59
2024-01-28T10:33:51.926Z,103031.81
2024-01-28T10:36:19.640Z,103028.25
2024-01-28T10:38:47.676Z,103029.09
2024-01-28T10:41:18.863Z,103026.81
2024-01-28T10:44:12.891Z,103027.34
2024-01-28T10:46:41.171Z,103021.66
2024-01-28T10:49:09.591Z,103011.59
2024-01-28T10:51:39.185Z,103006.28
2024-01-28T10:54:09.141Z,103006.13
2024-01-28T10:56:40.608Z,103003.19
2024-01-28T10:59:08.805Z,102986.41
2024-01-28T11:01:37.195Z,102990.34
2024-01-28T11:04:06.142Z,102994.31
2024-01-28T11:06:34.566Z,102982.00
2024-01-28T11:09:04.749Z,102992.84
2024-01-28T11:11:32.317Z,102981.56
2024-01-28T11:14:05.961Z,102986.63
2024-01-28T11:16:33.512Z,102982.13
2024-01-28T11:19:07.479Z,102980.19
2024-01-28T11:21:35.604Z,102963.88
2024-01-28T11:24:07.494Z,102965.75
2024-01-28T11:26:45.366Z,102965.34
2024-01-28T11:29:13.441Z,102958.31
2024-01-28T11:31:41.972Z,102960.88
2024-01-28T11:34:23.087Z,102962.41
2024-01-28T11:36:55.391Z,102957.66
2024-01-28T11:39:44.036Z,102967.06
2024-01-28T11:42:11.818Z,102957.34
2024-01-28T11:44:42.278Z,102959.00
2024-01-28T11:47:14.737Z,102945.97
2024-01-28T11:49:45.912Z,102945.41
2024-01-28T11:52:13.704Z,102951.47
2024-01-28T11:54:45.028Z,102942.19
2024-01-28T11:57:12.852Z,102940.16
2024-01-28T11:59:40.687Z,102935.94
2024-01-28T12:02:09.725Z,102937.59
2024-01-28T12:04:40.323Z,102929.16
2024-01-28T12:07:09.264Z,102921.81
2024-01-28T12:09:38.696Z,102916.66
2024-01-28T12:12:07.909Z,102916.72
2024-01-28T12:14:35.635Z,102913.63
2024-01-28T12:17:03.277Z,102908.13
2024-01-28T12:19:30.926Z,102912.06
2024-01-28T12:21:59.767Z,102904.75
2024-01-28T12:24:28.137Z,102898.06
2024-01-28T12:26:56.814Z,102901.16
2024-01-28T12:29:24.616Z,102895.91
2024-01-28T12:31:52.493Z,102890.38
2024-01-28T12:34:20.490Z,102897.81
2024-01-28T12:36:48.370Z,102887.19
2024-01-28T12:39:16.327Z,102886.47
2024-01-28T12:41:44.083Z,102872.09
2024-01-28T12:44:11.589Z,102866.72
2024-01-28T12:46:39.259Z,102875.41
2024-01-28T12:49:10.291Z,102869.81
2024-01-28T12:51:40.133Z,102865.56
2024-01-28T12:54:09.566Z,102865.00
2024-01-28T12:56:37.376Z,102856.41
2024-01-28T12:59:05.228Z,102846.25
2024-01-28T13:01:33.191Z,102847.94
2024-01-28T13:04:01.094Z,102836.81
2024-01-28T13:06:29.024Z,102837.56
2024-01-28T13:08:57.695Z,102837.75
2024-01-28T13:11:27.929Z,102822.22
2024-01-28T13:13:55.718Z,102827.25
2024-01-28T13:16:24.958Z,102820.53
2024-01-28T13:18:53.062Z,102823.91
2024-01-28T13:21:20.866Z,102820.72
2024-01-28T13:23:48.496Z,102814.84
2024-01-28T13:26:20.223Z,102815.50
2024-01-28T13:28:47.960Z,102820.97
2024-01-28T13:31:15.673Z,102809.91
2024-01-28T13:33:43.446Z,102803.25
2024-01-28T13:36:12.625Z,102807.81
2024-01-28T13:38:41.085Z,102810.94
2024-01-28T13:41:08.900Z,102793.88
2024-01-28T13:43:37.908Z,102794.13
2024-01-28T13:46:05.641Z,102794.25
2024-01-28T13:48:33.418Z,102779.75
2024-01-28T13:51:01.051Z,102775.78
2024-01-28T13:53:28.628Z,102777.53
2024-01-28T13:55:56.282Z,102766.47
2024-01-28T13:58:23.902Z,102772.00
2024-01-28T14:00:51.464Z,102767.44
2024-01-28T14:03:19.065Z,102760.69
2024-01-28T14:05:46.687Z,102758.50
2024-01-28T14:08:14.732Z,102766.16
2024-01-28T14:10:42.759Z,102757.41
2024-01-28T14:13:11.440Z,102755.09
2024-01-28T14:15:39.887Z,102745.81
2024-01-28T14:18:08.977Z,102748.53
2024-01-28T14:20:36.847Z,102749.50
2024-01-28T14:23:04.749Z,102750.13
2024-01-28T14:25:32.476Z,102743.72
2024-01-28T14:28:00.556Z,102749.88
2024-01-28T14:30:28.422Z,102736.16
2024-01-28T14:32:56.254Z,102746.72
2024-01-28T14:35:24.006Z,102752.53
2024-01-28T14:37:51.967Z,102745.81
2024-01-28T14:40:19.808Z,102750.53
2024-01-28T14:42:47.780Z,102742.28
2024-01-28T14:45:15.908Z,102742.59
2024-01-28T14:47:44.627Z,102753.41
2024-01-28T14:50:12.533Z,102751.50
2024-01-28T14:52:40.221Z,102741.97
2024-01-28T14:55:08.406Z,102741.41
2024-01-28T14:57:36.658Z,102751.50
2024-01-28T15:00:05.904Z,102759.59
2024-01-28T15:02:34.079Z,102752.53
2024-01-28T15:05:06.278Z,102743.53
2024-01-28T15:07:34.137Z,102759.44
2024-01-28T15:10:02.465Z,102744.16
2024-01-28T15:12:30.361Z,102741.66
2024-01-28T15:14:58.007Z,102742.28
2024-01-28T15:17:28.931Z,102741.16
2024-01-28T15:19:56.986Z,102740.69
2024-01-28T15:22:27.537Z,102725.66
2024-01-28T15:24:58.768Z,102728.28
2024-01-28T15:27:27.829Z,102723.69
2024-01-28T15:29:55.706Z,102723.56
2024-01-28T15:32:23.440Z,102718.22
2024-01-28T15:34:52.164Z,102720.38
2024-01-28T15:37:19.981Z,102723.81
2024-01-28T15:39:47.782Z,102714.66
2024-01-28T15:42:15.569Z,102706.81
2024-01-28T15:44:43.364Z,102705.06
2024-01-28T15:47:11.372Z,102697.84
2024-01-28T15:49:39.233Z,102692.31
2024-01-28T15:52:07.049Z,102681.59
2024-01-28T15:54:34.838Z,102688.94
2024-01-28T15:57:02.566Z,102684.00
2024-01-28T15:59:30.282Z,102686.56
2024-01-28T16:01:58.054Z,102688.75
2024-01-28T16:04:25.855Z,102683.91
2024-01-28T16:06:53.531Z,102681.63
2024-01-28T16:09:21.234Z,102685.69
2024-01-28T16:11:48.835Z,102687.75
2024-01-28T16:14:16.421Z,102682.66
2024-01-28T16:16:44.221Z,102679.94
2024-01-28T16:19:14.639Z,102677.03
2024-01-28T16:21:42.693Z,102670.91
2024-01-28T16:24:10.370Z,102665.53
2024-01-28T16:26:37.887Z,102666.06
2024-01-28T16:29:05.494Z,102664.75
2024-01-28T16:31:33.261Z,102665.00
2024-01-28T16:34:01.025Z,102669.56
2024-01-28T16:36:28.698Z,102664.00
2024-01-28T16:38:56.435Z,102666.75
2024-01-28T16:41:25.768Z,102663.94
2024-01-28T16:43:53.457Z,102665.38
2024-01-28T16:46:21.127Z,102667.06
2024-01-28T16:48:49.069Z,102665.72
2024-01-28T16:51:16.937Z,102667.50
2024-01-28T16:53:44.705Z,102667.72
2024-01-28T16:56:12.515Z,102658.03
2024-01-28T16:58:41.226Z,102667.66
2024-01-28T17:01:10.644Z,102671.41
2024-01-28T17:03:38.641Z,102660.31
2024-01-28T17:06:06.950Z,102654.75
2024-01-28T17:08:34.799Z,102655.44
2024-01-28T17:11:02.544Z,102659.84
2024-01-28T17:13:34.552Z,102660.72
2024-01-28T17:16:04.519Z,102663.09
2024-01-28T17:18:35.780Z,102661.31
2024-01-28T17:21:03.665Z,102661.69
2024-01-28T17:23:31.359Z,102660.00
2024-01-28T17:25:59.252Z,102666.59
2024-01-28T17:28:27.110Z,102649.66
2024-01-28T17:30:56.572Z,102651.00
2024-01-28T17:33:24.514Z,102659.53
2024-01-28T17:35:52.502Z,102653.28
2024-01-28T17:38:20.658Z,102657.78
2024-01-28T17:40:48.998Z,102647.00
2024-01-28T17:43:16.830Z,102650.63
2024-01-28T17:45:45.515Z,102640.34
2024-01-28T17:48:13.387Z,102648.50
2024-01-28T17:50:43.434Z,102638.41
2024-01-28T17:53:11.744Z,102640.94
2024-01-28T17:55:39.846Z,102633.31
2024-01-28T17:58:07.511Z,102638.78
2024-01-28T18:00:35.265Z,102636.06
2024-01-28T18:03:03.443Z,102632.81
2024-01-28T18:05:32.206Z,102628.69
2024-01-28T18:08:00.058Z,102633.81
2024-01-28T18:10:27.860Z,102623.31
2024-01-28T18:12:55.691Z,102624.38
2024-01-28T18:15:23.529Z,102620.56
2024-01-28T18:17:52.987Z,102625.75
2024-01-28T18:20:20.910Z,102621.66
2024-01-28T18:22:50.080Z,102621.06
2024-01-28T18:25:17.838Z,102617.34
2024-01-28T18:27:45.738Z,102620.47
2024-01-28T18:30:14.055Z,102616.06
2024-01-28T18:32:41.868Z,102619.22
2024-01-28T18:35:09.917Z,102619.00
2024-01-28T18:37:37.673Z,102617.34
2024-01-28T18:40:06.150Z,102615.00
2024-01-28T18:42:34.843Z,102614.78
2024-01-28T18:45:03.639Z,102625.41
2024-01-28T18:47:31.618Z,102605.28
2024-01-28T18:49:59.632Z,102602.16
2024-01-28T18:52:27.751Z,102599.00
2024-01-28T18:54:55.739Z,102597.44
2024-01-28T18:57:23.648Z,102604.69
2024-01-28T18:59:51.473Z,102604.75
2024-01-28T19:02:21.701Z,102601.81
2024-01-28T19:04:49.521Z,102603.53
2024-01-28T19:07:17.332Z,102604.53
2024-01-28T19:09:46.697Z,102590.78
2024-01-28T19:12:14.649Z,102599.44
2024-01-28T19:14:42.409Z,102588.84
2024-01-28T19:17:10.104Z,102596.81
2024-01-28T19:19:38.234Z,102598.91
2024-01-28T19:22:05.987Z,102604.50
2024-01-28T19:24:33.869Z,102602.84
2024-01-28T19:27:01.668Z,102598.09
2024-01-28T19:29:29.448Z,102588.59
2024-01-28T19:31:59.715Z,102589.91
2024-01-28T19:34:27.730Z,102591.16
2024-01-28T19:36:55.756Z,102593.00
2024-01-28T19:39:25.808Z,102590.34
2024-01-28T19:41:53.742Z,102585.84
2024-01-28T19:44:21.482Z,102586.03
2024-01-28T19:46:49.163Z,102577.81
2024-01-28T19:49:17.046Z,102584.44
2024-01-28T19:51:44.864Z,102597.31
2024-01-28T19:54:12.713Z,102593.00
2024-01-28T19:56:40.307Z,102600.50
2024-01-28T19:59:08.173Z,102588.22
2024-01-28T20:01:36.247Z,102596.25
2024-01-28T20:04:05.190Z,102598.63
2024-01-28T20:06:37.427Z,102605.75
2024-01-28T20:09:06.093Z,102594.31
2024-01-28T20:11:35.074Z,102601.81
2024-01-28T20:14:04.422Z,102600.00
2024-01-28T20:16:32.194Z,102594.13
2024-01-28T20:19:00.101Z,102581.72
2024-01-28T20:21:28.531Z,102576.63
2024-01-28T20:23:56.542Z,102585.31
2024-01-28T20:26:24.212Z,102586.09
2024-01-28T20:28:52.700Z,102598.00
2024-01-28T20:31:26.274Z,102592.06
2024-01-28T20:33:54.425Z,102593.56
2024-01-28T20:36:23.755Z,102585.22
2024-01-28T20:38:51.976Z,102589.72
2024-01-28T20:41:21.524Z,102598.34
2024-01-28T20:43:49.334Z,102599.88
2024-01-28T20:46:17.150Z,102584.84
2024-01-28T20:48:46.955Z,102587.88
2024-01-28T20:51:14.783Z,102585.91
2024-01-28T20:53:42.543Z,102580.09
2024-01-28T20:56:11.981Z,102582.00
2024-01-28T20:58:40.903Z,102582.88
2024-01-28T21:01:09.326Z,102592.47
2024-01-28T21:03:38.119Z,102576.53
2024-01-28T21:06:05.944Z,102578.94
2024-01-28T21:08:34.047Z,102579.94
2024-01-28T21:11:11.450Z,102583.28
2024-01-28T21:13:39.191Z,102579.31
2024-01-28T21:16:07.467Z,102588.50
2024-01-28T21:18:35.459Z,102589.19
2024-01-28T21:21:03.299Z,102594.50
2024-01-28T21:23:31.050Z,102590.53
2024-01-28T21:25:58.713Z,102590.03
2024-01-28T21:28:27.961Z,102588.31
2024-01-28T21:30:56.106Z,102593.28
2024-01-28T21:33:26.213Z,102591.72
2024-01-28T21:35:54.089Z,102592.22
2024-01-28T21:38:21.728Z,102592.97
2024-01-28T21:40:49.321Z,102584.16
2024-01-28T21:43:17.116Z,102590.84
2024-01-28T21:45:45.068Z,102587.00
2024-01-28T21:48:12.931Z,102592.97
2024-01-28T21:50:40.656Z,102589.50
2024-01-28T21:53:08.382Z,102580.09
2024-01-28T21:55:36.162Z,102577.69
2024-01-28T21:58:04.097Z,102581.25
2024-01-28T22:00:33.720Z,102584.53
2024-01-28T22:03:01.545Z,102586.22
2024-01-28T22:05:29.256Z,102583.66
2024-01-28T22:07:57.003Z,102589.94
2024-01-28T22:10:24.568Z,102590.66
2024-01-28T22:12:52.391Z,102591.44
2024-01-28T22:15:20.281Z,102597.19
2024-01-28T22:17:47.981Z,102604.03
2024-01-28T22:20:15.774Z,102598.22
2024-01-28T22:22:43.432Z,102607.84
2024-01-28T22:25:11.387Z,102607.66
2024-01-28T22:27:39.509Z,102610.19
2024-01-28T22:30:08.400Z,102609.13
2024-01-28T22:32:37.123Z,102602.72
2024-01-28T22:35:05.783Z,102603.94
2024-01-28T22:37:33.483Z,102600.72
2024-01-28T22:40:01.136Z,102600.03
2024-01-28T22:42:29.026Z,102596.94
2024-01-28T22:44:56.628Z,102597.44
2024-01-28T22:47:24.793Z,102597.44
2024-01-28T22:49:52.466Z,102602.09
2024-01-28T22:52:20.050Z,102594.38
2024-01-28T22:54:47.696Z,102604.47
2024-01-28T22:57:16.230Z,102601.19
2024-01-28T22:59:44.105Z,102603.94
2024-01-28T23:02:21.585Z,102601.19
2024-01-28T23:04:49.143Z,102611.38
2024-01-28T23:07:16.681Z,102606.06
2024-01-28T23:09:44.366Z,102608.16
2024-01-28T23:12:12.096Z,102600.50
2024-01-28T23:14:39.697Z,102607.56
2024-01-28T23:17:07.197Z,102603.50
2024-01-28T23:19:35.231Z,102599.81
2024-01-28T23:22:03.333Z,102596.16
2024-01-28T23:24:31.507Z,102591.16
2024-01-28T23:26:59.155Z,102587.66
2024-01-28T23:29:27.494Z,102576.59
2024-01-28T23:31:54.970Z,102584.94
2024-01-28T23:34:22.698Z,102581.47
2024-01-28T23:36:50.416Z,102586.28
2024-01-28T23:39:18.094Z,102584.22
2024-01-28T23:41:46.508Z,102590.09
2024-01-28T23:44:17.488Z,102586.28
2024-01-28T23:46:45.096Z,102587.31
2024-01-28T23:49:14.517Z,102596.81
2024-01-28T23:51:45.878Z,102582.00
2024-01-28T23:54:13.831Z,102583.59
2024-01-28T23:56:41.618Z,102584.41
2024-01-28T23:59:09.602Z,102582.38
